WJA553 CYYC-CYCD
Flight info
| Callsign | WJA553 |
|---|---|
| Flight time | 1h 9m |
| Altitude | 38000 |
| Route | DCT ROVMA DCT UKSAP DCT NOVAR DCT BOOTH DCT LANNE DCT YVR DCT AMEBO DCT VIXOR DCT YCD DCT |
| Aircraft | B38M/M-SDE1FGHILORVWXY/HB1 |
Departure
| Time | 2026-05-05 17:51 |
|---|---|
| Airport | Calgary International Airport (CYYC) |
Arrival
| Time | 2026-05-05 19:00 |
|---|---|
| Airport | Nanaimo Airport (CYCD) |
| Time | Latitude | Longitude | Altitude | Speed | Heading |
|---|---|---|---|---|---|
| 2026-05-05 17:19 | 51.13148 | -114.01280 | 3545 ft | 0 kts | 59° |
| 2026-05-05 17:38 | 51.13146 | -114.01283 | 3543 ft | 2 kts | 59° |
| 2026-05-05 17:38 | 51.13134 | -114.01318 | 3545 ft | 4 kts | 63° |
| 2026-05-05 17:38 | 51.13124 | -114.01356 | 3543 ft | 4 kts | 75° |
| 2026-05-05 17:39 | 51.13122 | -114.01392 | 3544 ft | 4 kts | 119° |
| 2026-05-05 17:39 | 51.13131 | -114.01404 | 3541 ft | 1 kts | 161° |
| 2026-05-05 17:39 | 51.13134 | -114.01406 | 3541 ft | 0 kts | 161° |
| 2026-05-05 17:45 | 51.13125 | -114.01401 | 3544 ft | 6 kts | 162° |
| 2026-05-05 17:45 | 51.13046 | -114.01386 | 3545 ft | 18 kts | 205° |
| 2026-05-05 17:45 | 51.12914 | -114.01499 | 3543 ft | 17 kts | 217° |
| 2026-05-05 17:45 | 51.12877 | -114.01668 | 3543 ft | 13 kts | 212° |
| 2026-05-05 17:46 | 51.12762 | -114.01679 | 3545 ft | 21 kts | 179° |
| 2026-05-05 17:46 | 51.12613 | -114.01652 | 3547 ft | 12 kts | 126° |
| 2026-05-05 17:46 | 51.12536 | -114.01563 | 3547 ft | 18 kts | 176° |
| 2026-05-05 17:46 | 51.12382 | -114.01565 | 3547 ft | 26 kts | 177° |
| 2026-05-05 17:47 | 51.12185 | -114.01548 | 3554 ft | 28 kts | 150° |
| 2026-05-05 17:47 | 51.12078 | -114.01268 | 3558 ft | 32 kts | 120° |
| 2026-05-05 17:47 | 51.11959 | -114.00951 | 3565 ft | 35 kts | 120° |
| 2026-05-05 17:47 | 51.11835 | -114.00611 | 3570 ft | 36 kts | 112° |
| 2026-05-05 17:48 | 51.11825 | -114.00217 | 3569 ft | 37 kts | 90° |
| 2026-05-05 17:48 | 51.11826 | -113.99794 | 3559 ft | 39 kts | 89° |
| 2026-05-05 17:48 | 51.11804 | -113.99460 | 3552 ft | 22 kts | 143° |
| 2026-05-05 17:48 | 51.11651 | -113.99446 | 3551 ft | 22 kts | 180° |
| 2026-05-05 17:49 | 51.11495 | -113.99448 | 3549 ft | 23 kts | 181° |
| 2026-05-05 17:49 | 51.11331 | -113.99448 | 3545 ft | 24 kts | 181° |
| 2026-05-05 17:49 | 51.11163 | -113.99446 | 3546 ft | 12 kts | 180° |
| 2026-05-05 17:49 | 51.11073 | -113.99439 | 3546 ft | 14 kts | 163° |
| 2026-05-05 17:50 | 51.11034 | -113.99309 | 3543 ft | 12 kts | 91° |
| 2026-05-05 17:50 | 51.11033 | -113.99181 | 3541 ft | 13 kts | 90° |
| 2026-05-05 17:50 | 51.11059 | -113.99050 | 3541 ft | 12 kts | 15° |
| 2026-05-05 17:50 | 51.11140 | -113.99044 | 3542 ft | 12 kts | 1° |
| 2026-05-05 17:51 | 51.11424 | -113.99041 | 3541 ft | 78 kts | 360° |
| 2026-05-05 17:51 | 51.12201 | -113.99042 | 3553 ft | 143 kts | 359° |
| 2026-05-05 17:51 | 51.13366 | -113.99021 | 3715 ft | 186 kts | 359° |
| 2026-05-05 17:51 | 51.14752 | -113.98987 | 4371 ft | 204 kts | 360° |
| 2026-05-05 17:52 | 51.16132 | -113.99001 | 5703 ft | 199 kts | 358° |
| 2026-05-05 17:52 | 51.17592 | -113.99023 | 6256 ft | 220 kts | 359° |
| 2026-05-05 17:52 | 51.19196 | -113.99048 | 6847 ft | 237 kts | 359° |
| 2026-05-05 17:52 | 51.20835 | -113.99065 | 7864 ft | 234 kts | 359° |
| 2026-05-05 17:53 | 51.22468 | -113.99069 | 8819 ft | 236 kts | 0° |
| 2026-05-05 17:53 | 51.24096 | -113.99277 | 9748 ft | 236 kts | 342° |
| 2026-05-05 17:53 | 51.25494 | -114.00671 | 10589 ft | 243 kts | 313° |
| 2026-05-05 17:53 | 51.26291 | -114.03086 | 11345 ft | 259 kts | 288° |
| 2026-05-05 17:54 | 51.26320 | -114.06098 | 11792 ft | 289 kts | 262° |
| 2026-05-05 17:54 | 51.25478 | -114.09174 | 12193 ft | 318 kts | 240° |
| 2026-05-05 17:54 | 51.24041 | -114.12025 | 12642 ft | 340 kts | 230° |
| 2026-05-05 17:54 | 51.22351 | -114.14770 | 13164 ft | 353 kts | 230° |
| 2026-05-05 17:55 | 51.20631 | -114.17596 | 13993 ft | 357 kts | 230° |
| 2026-05-05 17:55 | 51.18893 | -114.20472 | 14641 ft | 363 kts | 231° |
| 2026-05-05 17:55 | 51.17130 | -114.23395 | 15305 ft | 369 kts | 232° |
| 2026-05-05 17:55 | 51.15339 | -114.26367 | 15904 ft | 375 kts | 232° |
| 2026-05-05 17:56 | 51.13514 | -114.29392 | 16513 ft | 381 kts | 233° |
| 2026-05-05 17:56 | 51.11661 | -114.32461 | 17125 ft | 387 kts | 234° |
| 2026-05-05 17:56 | 51.09777 | -114.35573 | 17720 ft | 394 kts | 233° |
| 2026-05-05 17:56 | 51.07861 | -114.38727 | 18225 ft | 399 kts | 235° |
| 2026-05-05 17:57 | 51.05966 | -114.41855 | 18806 ft | 402 kts | 235° |
| 2026-05-05 17:57 | 51.03995 | -114.45107 | 19326 ft | 406 kts | 235° |
| 2026-05-05 17:57 | 51.02025 | -114.48349 | 19837 ft | 410 kts | 235° |
| 2026-05-05 17:57 | 51.00052 | -114.51591 | 20347 ft | 415 kts | 235° |
| 2026-05-05 17:58 | 50.98245 | -114.55089 | 20808 ft | 403 kts | 250° |
| 2026-05-05 17:58 | 50.97190 | -114.59089 | 21225 ft | 389 kts | 265° |
| 2026-05-05 17:58 | 50.96447 | -114.63246 | 21695 ft | 392 kts | 266° |
| 2026-05-05 17:58 | 50.95741 | -114.67434 | 22202 ft | 395 kts | 266° |
| 2026-05-05 17:59 | 50.95051 | -114.71670 | 22675 ft | 398 kts | 267° |
| 2026-05-05 17:59 | 50.94368 | -114.75906 | 23182 ft | 401 kts | 267° |
| 2026-05-05 17:59 | 50.93683 | -114.80191 | 23631 ft | 405 kts | 266° |
| 2026-05-05 17:59 | 50.92987 | -114.84554 | 23981 ft | 407 kts | 267° |
| 2026-05-05 18:00 | 50.92294 | -114.88903 | 24413 ft | 408 kts | 267° |
| 2026-05-05 18:00 | 50.91833 | -114.91794 | 24665 ft | 411 kts | 267° |
| 2026-05-05 18:00 | 50.90886 | -114.97693 | 25208 ft | 413 kts | 266° |
| 2026-05-05 18:00 | 50.90178 | -115.02097 | 25660 ft | 415 kts | 267° |
| 2026-05-05 18:01 | 50.89461 | -115.06555 | 26021 ft | 418 kts | 267° |
| 2026-05-05 18:01 | 50.88741 | -115.11021 | 26445 ft | 420 kts | 267° |
| 2026-05-05 18:01 | 50.88017 | -115.15492 | 26852 ft | 422 kts | 267° |
| 2026-05-05 18:01 | 50.87285 | -115.20006 | 27226 ft | 424 kts | 267° |
| 2026-05-05 18:02 | 50.86545 | -115.24551 | 27320 ft | 427 kts | 266° |
| 2026-05-05 18:02 | 50.85805 | -115.29080 | 27877 ft | 424 kts | 266° |
| 2026-05-05 18:02 | 50.85061 | -115.33631 | 28198 ft | 429 kts | 266° |
| 2026-05-05 18:02 | 50.84311 | -115.38204 | 28585 ft | 430 kts | 266° |
| 2026-05-05 18:03 | 50.83554 | -115.42804 | 28947 ft | 433 kts | 266° |
| 2026-05-05 18:03 | 50.82791 | -115.47427 | 29308 ft | 436 kts | 266° |
| 2026-05-05 18:03 | 50.82025 | -115.52053 | 29537 ft | 438 kts | 266° |
| 2026-05-05 18:03 | 50.81512 | -115.55149 | 29706 ft | 440 kts | 266° |
| 2026-05-05 18:04 | 50.80736 | -115.59818 | 30091 ft | 440 kts | 266° |
| 2026-05-05 18:04 | 50.79954 | -115.64514 | 30442 ft | 443 kts | 266° |
| 2026-05-05 18:04 | 50.78907 | -115.70775 | 30791 ft | 446 kts | 266° |
| 2026-05-05 18:04 | 50.78113 | -115.75509 | 31092 ft | 448 kts | 266° |
| 2026-05-05 18:05 | 50.77572 | -115.78731 | 31245 ft | 449 kts | 266° |
| 2026-05-05 18:05 | 50.76766 | -115.83513 | 31528 ft | 451 kts | 266° |
| 2026-05-05 18:05 | 50.75958 | -115.88308 | 31782 ft | 453 kts | 266° |
| 2026-05-05 18:05 | 50.75144 | -115.93108 | 31994 ft | 455 kts | 266° |
| 2026-05-05 18:06 | 50.74324 | -115.97928 | 32306 ft | 456 kts | 266° |
| 2026-05-05 18:06 | 50.73778 | -116.01136 | 32443 ft | 457 kts | 266° |
| 2026-05-05 18:06 | 50.72669 | -116.07626 | 32857 ft | 457 kts | 266° |
| 2026-05-05 18:06 | 50.71840 | -116.12468 | 33095 ft | 457 kts | 266° |
| 2026-05-05 18:07 | 50.71008 | -116.17308 | 33452 ft | 456 kts | 265° |
| 2026-05-05 18:07 | 50.70177 | -116.22133 | 33834 ft | 455 kts | 265° |
| 2026-05-05 18:07 | 50.69347 | -116.26941 | 34162 ft | 454 kts | 265° |
| 2026-05-05 18:07 | 50.68522 | -116.31716 | 34466 ft | 453 kts | 265° |
| 2026-05-05 18:08 | 50.67691 | -116.36512 | 34776 ft | 453 kts | 265° |
| 2026-05-05 18:08 | 50.66852 | -116.41292 | 35151 ft | 450 kts | 265° |
| 2026-05-05 18:08 | 50.66018 | -116.46031 | 35481 ft | 449 kts | 265° |
| 2026-05-05 18:08 | 50.65184 | -116.50782 | 35743 ft | 451 kts | 265° |
| 2026-05-05 18:09 | 50.64349 | -116.55541 | 35998 ft | 451 kts | 265° |
| 2026-05-05 18:09 | 50.63510 | -116.60297 | 36199 ft | 451 kts | 265° |
| 2026-05-05 18:09 | 50.62668 | -116.65057 | 36489 ft | 451 kts | 265° |
| 2026-05-05 18:09 | 50.61830 | -116.69785 | 36776 ft | 450 kts | 265° |
| 2026-05-05 18:10 | 50.60990 | -116.74519 | 36920 ft | 449 kts | 265° |
| 2026-05-05 18:10 | 50.59307 | -116.83927 | 37145 ft | 449 kts | 265° |
| 2026-05-05 18:11 | 50.57603 | -116.93411 | 37364 ft | 449 kts | 264° |
| 2026-05-05 18:11 | 50.56753 | -116.98129 | 37473 ft | 451 kts | 264° |
| 2026-05-05 18:11 | 50.55896 | -117.02864 | 37639 ft | 449 kts | 264° |
| 2026-05-05 18:11 | 50.55045 | -117.07564 | 37918 ft | 447 kts | 264° |
| 2026-05-05 18:12 | 50.54192 | -117.12264 | 38064 ft | 447 kts | 264° |
| 2026-05-05 18:12 | 50.52477 | -117.21670 | 38066 ft | 447 kts | 264° |
| 2026-05-05 18:13 | 50.50755 | -117.31056 | 38083 ft | 447 kts | 263° |
| 2026-05-05 18:13 | 50.49025 | -117.40445 | 38055 ft | 447 kts | 264° |
| 2026-05-05 18:14 | 50.47298 | -117.49771 | 38028 ft | 446 kts | 263° |
| 2026-05-05 18:14 | 50.45561 | -117.59105 | 38023 ft | 446 kts | 263° |
| 2026-05-05 18:15 | 50.43815 | -117.68442 | 38122 ft | 447 kts | 263° |
| 2026-05-05 18:15 | 50.42060 | -117.77769 | 38033 ft | 445 kts | 263° |
| 2026-05-05 18:16 | 50.40372 | -117.86707 | 38041 ft | 447 kts | 263° |
| 2026-05-05 18:16 | 50.38606 | -117.96006 | 38047 ft | 446 kts | 262° |
| 2026-05-05 18:17 | 50.36824 | -118.05343 | 38027 ft | 447 kts | 263° |
| 2026-05-05 18:17 | 50.35040 | -118.14654 | 38041 ft | 446 kts | 262° |
| 2026-05-05 18:18 | 50.33264 | -118.23874 | 38023 ft | 446 kts | 263° |
| 2026-05-05 18:18 | 50.31462 | -118.33176 | 38031 ft | 447 kts | 262° |
| 2026-05-05 18:18 | 50.30561 | -118.37821 | 37922 ft | 445 kts | 262° |
| 2026-05-05 18:19 | 50.29662 | -118.42434 | 38062 ft | 442 kts | 262° |
| 2026-05-05 18:19 | 50.27856 | -118.51676 | 38043 ft | 447 kts | 262° |
| 2026-05-05 18:20 | 50.26037 | -118.60930 | 38035 ft | 447 kts | 262° |
| 2026-05-05 18:20 | 50.24205 | -118.70208 | 38031 ft | 447 kts | 262° |
| 2026-05-05 18:21 | 50.22365 | -118.79483 | 38004 ft | 447 kts | 262° |
| 2026-05-05 18:21 | 50.20534 | -118.88678 | 38085 ft | 442 kts | 262° |
| 2026-05-05 18:22 | 50.18690 | -118.97889 | 37990 ft | 446 kts | 262° |
| 2026-05-05 18:22 | 50.16833 | -119.07119 | 38004 ft | 447 kts | 262° |
| 2026-05-05 18:23 | 50.14969 | -119.16334 | 37991 ft | 447 kts | 261° |
| 2026-05-05 18:23 | 50.13092 | -119.25583 | 38005 ft | 446 kts | 261° |
| 2026-05-05 18:24 | 50.11219 | -119.34763 | 38009 ft | 446 kts | 261° |
| 2026-05-05 18:24 | 50.09336 | -119.43947 | 38014 ft | 445 kts | 261° |
| 2026-05-05 18:25 | 50.07444 | -119.53134 | 38017 ft | 446 kts | 261° |
| 2026-05-05 18:25 | 50.05545 | -119.62311 | 37987 ft | 445 kts | 261° |
| 2026-05-05 18:26 | 50.03645 | -119.71457 | 38021 ft | 446 kts | 261° |
| 2026-05-05 18:26 | 50.01733 | -119.80617 | 38012 ft | 445 kts | 261° |
| 2026-05-05 18:27 | 49.99819 | -119.89744 | 38038 ft | 444 kts | 260° |
| 2026-05-05 18:27 | 49.97892 | -119.98891 | 38008 ft | 445 kts | 260° |
| 2026-05-05 18:28 | 49.94997 | -120.12553 | 38016 ft | 445 kts | 260° |
| 2026-05-05 18:28 | 49.93056 | -120.21665 | 38014 ft | 445 kts | 260° |
| 2026-05-05 18:29 | 49.91106 | -120.30771 | 38025 ft | 445 kts | 260° |
| 2026-05-05 18:29 | 49.89154 | -120.39851 | 38027 ft | 445 kts | 259° |
| 2026-05-05 18:30 | 49.87194 | -120.48927 | 38017 ft | 443 kts | 259° |
| 2026-05-05 18:30 | 49.85229 | -120.57990 | 38028 ft | 443 kts | 259° |
| 2026-05-05 18:31 | 49.83259 | -120.67035 | 38022 ft | 443 kts | 259° |
| 2026-05-05 18:31 | 49.81280 | -120.76078 | 38011 ft | 443 kts | 259° |
| 2026-05-05 18:32 | 49.79301 | -120.85082 | 37980 ft | 443 kts | 258° |
| 2026-05-05 18:32 | 49.77309 | -120.94106 | 38015 ft | 443 kts | 258° |
| 2026-05-05 18:33 | 49.75312 | -121.03119 | 38012 ft | 443 kts | 258° |
| 2026-05-05 18:33 | 49.73308 | -121.12112 | 37306 ft | 442 kts | 258° |
| 2026-05-05 18:34 | 49.72337 | -121.16460 | 37499 ft | 434 kts | 258° |
| 2026-05-05 18:34 | 49.71332 | -121.20959 | 37330 ft | 440 kts | 258° |
| 2026-05-05 18:34 | 49.69324 | -121.29901 | 37312 ft | 442 kts | 257° |
| 2026-05-05 18:35 | 49.67312 | -121.38822 | 37282 ft | 443 kts | 257° |
| 2026-05-05 18:35 | 49.65279 | -121.47801 | 37322 ft | 443 kts | 257° |
| 2026-05-05 18:36 | 49.63245 | -121.56759 | 37293 ft | 444 kts | 257° |
| 2026-05-05 18:36 | 49.61199 | -121.65730 | 37288 ft | 444 kts | 257° |
| 2026-05-05 18:37 | 49.59143 | -121.74703 | 37341 ft | 445 kts | 257° |
| 2026-05-05 18:37 | 49.57075 | -121.83708 | 37312 ft | 444 kts | 257° |
| 2026-05-05 18:38 | 49.56048 | -121.88165 | 36506 ft | 447 kts | 257° |
| 2026-05-05 18:38 | 49.54996 | -121.92718 | 35583 ft | 454 kts | 256° |
| 2026-05-05 18:38 | 49.53948 | -121.97245 | 35011 ft | 452 kts | 256° |
| 2026-05-05 18:38 | 49.52908 | -122.01724 | 35052 ft | 436 kts | 256° |
| 2026-05-05 18:39 | 49.51708 | -122.05990 | 34970 ft | 436 kts | 244° |
| 2026-05-05 18:39 | 49.50071 | -122.09918 | 34994 ft | 435 kts | 244° |
| 2026-05-05 18:39 | 49.46935 | -122.17885 | 34984 ft | 435 kts | 244° |
| 2026-05-05 18:40 | 49.43790 | -122.25800 | 34991 ft | 435 kts | 244° |
| 2026-05-05 18:40 | 49.40624 | -122.33734 | 34959 ft | 434 kts | 243° |
| 2026-05-05 18:41 | 49.39054 | -122.37660 | 34445 ft | 432 kts | 243° |
| 2026-05-05 18:41 | 49.37470 | -122.41613 | 33639 ft | 438 kts | 243° |
| 2026-05-05 18:41 | 49.35864 | -122.45620 | 32747 ft | 444 kts | 243° |
| 2026-05-05 18:41 | 49.34231 | -122.49684 | 31877 ft | 450 kts | 243° |
| 2026-05-05 18:42 | 49.32588 | -122.53768 | 31025 ft | 454 kts | 242° |
| 2026-05-05 18:42 | 49.30924 | -122.57898 | 30199 ft | 459 kts | 242° |
| 2026-05-05 18:42 | 49.29238 | -122.62079 | 29240 ft | 463 kts | 242° |
| 2026-05-05 18:42 | 49.27537 | -122.66293 | 28248 ft | 467 kts | 242° |
| 2026-05-05 18:43 | 49.25821 | -122.70541 | 27312 ft | 470 kts | 242° |
| 2026-05-05 18:43 | 49.24096 | -122.74804 | 26386 ft | 473 kts | 242° |
| 2026-05-05 18:43 | 49.22373 | -122.79049 | 26038 ft | 463 kts | 242° |
| 2026-05-05 18:43 | 49.20680 | -122.83226 | 25274 ft | 463 kts | 242° |
| 2026-05-05 18:44 | 49.18985 | -122.87397 | 24407 ft | 466 kts | 242° |
| 2026-05-05 18:44 | 49.17306 | -122.91520 | 23594 ft | 469 kts | 242° |
| 2026-05-05 18:44 | 49.15540 | -122.95849 | 22580 ft | 471 kts | 242° |
| 2026-05-05 18:44 | 49.13798 | -123.00110 | 21668 ft | 472 kts | 242° |
| 2026-05-05 18:45 | 49.12069 | -123.04337 | 21066 ft | 466 kts | 242° |
| 2026-05-05 18:45 | 49.10367 | -123.08491 | 20512 ft | 457 kts | 242° |
| 2026-05-05 18:45 | 49.08685 | -123.12447 | 19702 ft | 446 kts | 235° |
| 2026-05-05 18:45 | 49.06423 | -123.15666 | 19259 ft | 434 kts | 215° |
| 2026-05-05 18:46 | 49.03817 | -123.17663 | 18806 ft | 421 kts | 205° |
| 2026-05-05 18:46 | 49.01172 | -123.19467 | 18132 ft | 413 kts | 206° |
| 2026-05-05 18:46 | 48.98579 | -123.21263 | 17410 ft | 406 kts | 206° |
| 2026-05-05 18:46 | 48.96028 | -123.23029 | 16737 ft | 399 kts | 206° |
| 2026-05-05 18:47 | 48.93526 | -123.24761 | 16100 ft | 392 kts | 206° |
| 2026-05-05 18:47 | 48.91069 | -123.26458 | 15473 ft | 385 kts | 206° |
| 2026-05-05 18:47 | 48.88665 | -123.28118 | 15093 ft | 371 kts | 206° |
| 2026-05-05 18:47 | 48.86544 | -123.30073 | 15034 ft | 344 kts | 223° |
| 2026-05-05 18:48 | 48.84829 | -123.32406 | 15136 ft | 322 kts | 224° |
| 2026-05-05 18:48 | 48.83162 | -123.34616 | 14754 ft | 317 kts | 223° |
| 2026-05-05 18:48 | 48.81512 | -123.36802 | 14273 ft | 314 kts | 223° |
| 2026-05-05 18:48 | 48.79873 | -123.38973 | 13770 ft | 312 kts | 223° |
| 2026-05-05 18:49 | 48.78247 | -123.41124 | 13255 ft | 308 kts | 221° |
| 2026-05-05 18:49 | 48.76750 | -123.43414 | 12716 ft | 303 kts | 238° |
| 2026-05-05 18:49 | 48.75927 | -123.46246 | 12253 ft | 292 kts | 262° |
| 2026-05-05 18:49 | 48.75910 | -123.49261 | 11745 ft | 284 kts | 281° |
| 2026-05-05 18:50 | 48.76137 | -123.52231 | 11201 ft | 285 kts | 266° |
| 2026-05-05 18:50 | 48.75580 | -123.55093 | 10706 ft | 286 kts | 242° |
| 2026-05-05 18:50 | 48.74872 | -123.56766 | 10384 ft | 285 kts | 234° |
| 2026-05-05 18:50 | 48.73607 | -123.60239 | 9743 ft | 278 kts | 252° |
| 2026-05-05 18:51 | 48.73217 | -123.62082 | 9388 ft | 277 kts | 255° |
| 2026-05-05 18:51 | 48.72672 | -123.64909 | 8905 ft | 274 kts | 255° |
| 2026-05-05 18:51 | 48.72155 | -123.67633 | 8397 ft | 272 kts | 255° |
| 2026-05-05 18:51 | 48.71634 | -123.70364 | 7922 ft | 270 kts | 255° |
| 2026-05-05 18:52 | 48.71112 | -123.73076 | 7478 ft | 267 kts | 256° |
| 2026-05-05 18:52 | 48.70599 | -123.75781 | 6996 ft | 266 kts | 255° |
| 2026-05-05 18:52 | 48.70095 | -123.78462 | 6542 ft | 264 kts | 255° |
| 2026-05-05 18:52 | 48.69591 | -123.81106 | 6191 ft | 258 kts | 256° |
| 2026-05-05 18:53 | 48.69084 | -123.83718 | 6142 ft | 261 kts | 255° |
| 2026-05-05 18:53 | 48.68786 | -123.86411 | 6079 ft | 258 kts | 275° |
| 2026-05-05 18:53 | 48.69311 | -123.88958 | 6102 ft | 253 kts | 303° |
| 2026-05-05 18:53 | 48.70532 | -123.90720 | 6120 ft | 238 kts | 332° |
| 2026-05-05 18:54 | 48.72078 | -123.91343 | 6120 ft | 225 kts | 353° |
| 2026-05-05 18:54 | 48.73592 | -123.91489 | 6112 ft | 211 kts | 355° |
| 2026-05-05 18:54 | 48.75035 | -123.91593 | 6094 ft | 206 kts | 355° |
| 2026-05-05 18:54 | 48.76470 | -123.91706 | 6113 ft | 207 kts | 355° |
| 2026-05-05 18:55 | 48.77911 | -123.91798 | 6101 ft | 207 kts | 358° |
| 2026-05-05 18:55 | 48.79348 | -123.91624 | 6073 ft | 207 kts | 5° |
| 2026-05-05 18:55 | 48.80783 | -123.91344 | 6104 ft | 208 kts | 6° |
| 2026-05-05 18:55 | 48.82214 | -123.91061 | 6116 ft | 206 kts | 5° |
| 2026-05-05 18:56 | 48.83572 | -123.90789 | 6116 ft | 192 kts | 5° |
| 2026-05-05 18:56 | 48.84878 | -123.90528 | 6069 ft | 187 kts | 5° |
| 2026-05-05 18:56 | 48.86143 | -123.90278 | 6071 ft | 187 kts | 5° |
| 2026-05-05 18:56 | 48.87460 | -123.90016 | 6091 ft | 187 kts | 5° |
| 2026-05-05 18:57 | 48.88750 | -123.89755 | 6097 ft | 187 kts | 6° |
| 2026-05-05 18:57 | 48.90038 | -123.89480 | 6103 ft | 186 kts | 5° |
| 2026-05-05 18:57 | 48.91320 | -123.89201 | 6103 ft | 186 kts | 6° |
| 2026-05-05 18:57 | 48.92605 | -123.88925 | 6075 ft | 187 kts | 6° |
| 2026-05-05 18:58 | 48.93890 | -123.88660 | 5722 ft | 188 kts | 5° |
| 2026-05-05 18:58 | 48.95163 | -123.88395 | 5284 ft | 182 kts | 5° |
| 2026-05-05 18:58 | 48.96400 | -123.88117 | 4833 ft | 176 kts | 9° |
| 2026-05-05 18:58 | 48.97579 | -123.87612 | 4175 ft | 175 kts | 15° |
| 2026-05-05 18:59 | 48.98738 | -123.87027 | 3398 ft | 181 kts | 15° |
| 2026-05-05 18:59 | 48.99978 | -123.86575 | 2597 ft | 184 kts | 359° |
| 2026-05-05 18:59 | 49.01230 | -123.86805 | 1854 ft | 183 kts | 352° |
| 2026-05-05 18:59 | 49.02516 | -123.87004 | 1087 ft | 182 kts | 358° |
| 2026-05-05 19:00 | 49.03767 | -123.87068 | 426 ft | 177 kts | 4° |
| 2026-05-05 19:00 | 49.04930 | -123.87029 | 133 ft | 156 kts | 2° |
| 2026-05-05 19:00 | 49.05712 | -123.87009 | 103 ft | 64 kts | 0° |
| 2026-05-05 19:00 | 49.05920 | -123.87004 | 105 ft | 27 kts | 0° |
| 2026-05-05 19:01 | 49.06125 | -123.87001 | 105 ft | 33 kts | 359° |
| 2026-05-05 19:01 | 49.06314 | -123.87002 | 105 ft | 16 kts | 341° |
| 2026-05-05 19:01 | 49.06341 | -123.87152 | 104 ft | 18 kts | 241° |
| 2026-05-05 19:01 | 49.06236 | -123.87244 | 102 ft | 19 kts | 182° |
| 2026-05-05 19:02 | 49.06098 | -123.87247 | 104 ft | 21 kts | 180° |
| 2026-05-05 19:02 | 49.05947 | -123.87250 | 103 ft | 23 kts | 181° |
| 2026-05-05 19:02 | 49.05784 | -123.87253 | 103 ft | 24 kts | 180° |
| 2026-05-05 19:02 | 49.05610 | -123.87259 | 103 ft | 26 kts | 179° |
| 2026-05-05 19:03 | 49.05440 | -123.87262 | 102 ft | 27 kts | 181° |
| 2026-05-05 19:03 | 49.05381 | -123.87262 | 103 ft | 0 kts | 179° |
| 2026-05-05 19:03 | 49.05376 | -123.87262 | 103 ft | 2 kts | 178° |
| 2026-05-05 19:03 | 49.05355 | -123.87260 | 103 ft | 5 kts | 178° |
| 2026-05-05 19:04 | 49.05330 | -123.87271 | 103 ft | 3 kts | 232° |
| 2026-05-05 19:04 | 49.05337 | -123.87317 | 103 ft | 1 kts | 303° |
| 2026-05-05 19:04 | 49.05342 | -123.87330 | 103 ft | 0 kts | 300° |